sensor_id;sensor_type;location;lat;lon;timestamp;P1;durP1;ratioP1;P2;durP2;ratioP2
1785;SDS011;890;48.158;11.540;2022-07-29T00:01:37;3.20;;;2.20;;
1785;SDS011;890;48.158;11.540;2022-07-29T00:04:02;1.83;;;1.70;;
1785;SDS011;890;48.158;11.540;2022-07-29T00:06:28;2.30;;;1.90;;
1785;SDS011;890;48.158;11.540;2022-07-29T00:08:53;4.10;;;2.23;;
1785;SDS011;890;48.158;11.540;2022-07-29T00:11:19;3.27;;;2.10;;
1785;SDS011;890;48.158;11.540;2022-07-29T00:13:45;2.63;;;1.73;;
1785;SDS011;890;48.158;11.540;2022-07-29T00:16:10;2.23;;;2.03;;
1785;SDS011;890;48.158;11.540;2022-07-29T00:18:36;2.20;;;1.93;;
1785;SDS011;890;48.158;11.540;2022-07-29T00:21:01;2.33;;;2.17;;
1785;SDS011;890;48.158;11.540;2022-07-29T00:23:27;2.37;;;2.17;;
1785;SDS011;890;48.158;11.540;2022-07-29T00:25:53;3.13;;;2.60;;
1785;SDS011;890;48.158;11.540;2022-07-29T00:28:18;5.20;;;2.60;;
1785;SDS011;890;48.158;11.540;2022-07-29T00:30:44;2.00;;;1.90;;
1785;SDS011;890;48.158;11.540;2022-07-29T00:33:09;2.87;;;2.53;;
1785;SDS011;890;48.158;11.540;2022-07-29T00:35:35;2.83;;;2.63;;
1785;SDS011;890;48.158;11.540;2022-07-29T00:38:14;2.90;;;2.70;;
1785;SDS011;890;48.158;11.540;2022-07-29T00:40:42;2.97;;;2.50;;
1785;SDS011;890;48.158;11.540;2022-07-29T00:43:09;2.30;;;2.10;;
1785;SDS011;890;48.158;11.540;2022-07-29T00:45:35;2.57;;;2.37;;
1785;SDS011;890;48.158;11.540;2022-07-29T00:48:01;4.00;;;2.40;;
1785;SDS011;890;48.158;11.540;2022-07-29T00:50:29;2.70;;;2.50;;
1785;SDS011;890;48.158;11.540;2022-07-29T00:52:55;2.50;;;2.30;;
1785;SDS011;890;48.158;11.540;2022-07-29T00:55:21;2.87;;;2.43;;
1785;SDS011;890;48.158;11.540;2022-07-29T00:57:47;2.33;;;2.13;;
1785;SDS011;890;48.158;11.540;2022-07-29T01:00:15;2.63;;;2.40;;
1785;SDS011;890;48.158;11.540;2022-07-29T01:02:44;3.87;;;2.30;;
1785;SDS011;890;48.158;11.540;2022-07-29T01:05:13;2.87;;;2.40;;
1785;SDS011;890;48.158;11.540;2022-07-29T01:07:40;2.50;;;2.30;;
1785;SDS011;890;48.158;11.540;2022-07-29T01:10:07;2.40;;;2.20;;
1785;SDS011;890;48.158;11.540;2022-07-29T01:12:34;2.13;;;2.00;;
1785;SDS011;890;48.158;11.540;2022-07-29T01:15:02;2.20;;;1.80;;
1785;SDS011;890;48.158;11.540;2022-07-29T01:20:22;2.10;;;2.00;;
1785;SDS011;890;48.158;11.540;2022-07-29T01:34:35;2.20;;;2.00;;
1785;SDS011;890;48.158;11.540;2022-07-29T01:39:48;2.10;;;1.90;;
1785;SDS011;890;48.158;11.540;2022-07-29T01:47:20;2.00;;;1.60;;
1785;SDS011;890;48.158;11.540;2022-07-29T01:49:51;1.60;;;1.50;;
1785;SDS011;890;48.158;11.540;2022-07-29T01:52:27;1.50;;;1.40;;
1785;SDS011;890;48.158;11.540;2022-07-29T01:55:01;1.90;;;1.40;;
1785;SDS011;890;48.158;11.540;2022-07-29T01:57:31;1.70;;;1.60;;
1785;SDS011;890;48.158;11.540;2022-07-29T02:00:00;1.60;;;1.50;;
1785;SDS011;890;48.158;11.540;2022-07-29T02:02:28;1.60;;;1.50;;
1785;SDS011;890;48.158;11.540;2022-07-29T02:04:56;2.17;;;1.70;;
1785;SDS011;890;48.158;11.540;2022-07-29T02:07:24;1.60;;;1.50;;
1785;SDS011;890;48.158;11.540;2022-07-29T02:09:54;1.40;;;1.30;;
1785;SDS011;890;48.158;11.540;2022-07-29T02:12:21;1.50;;;1.40;;
1785;SDS011;890;48.158;11.540;2022-07-29T02:14:52;1.70;;;1.60;;
1785;SDS011;890;48.158;11.540;2022-07-29T02:17:23;1.50;;;1.40;;
1785;SDS011;890;48.158;11.540;2022-07-29T02:19:51;1.83;;;1.43;;
1785;SDS011;890;48.158;11.540;2022-07-29T02:22:21;1.63;;;1.53;;
1785;SDS011;890;48.158;11.540;2022-07-29T02:24:48;1.63;;;1.50;;
1785;SDS011;890;48.158;11.540;2022-07-29T02:27:16;1.77;;;1.60;;
1785;SDS011;890;48.158;11.540;2022-07-29T02:29:44;1.50;;;1.40;;
1785;SDS011;890;48.158;11.540;2022-07-29T02:32:11;1.80;;;1.50;;
1785;SDS011;890;48.158;11.540;2022-07-29T02:34:40;1.60;;;1.50;;
1785;SDS011;890;48.158;11.540;2022-07-29T02:37:08;1.67;;;1.40;;
1785;SDS011;890;48.158;11.540;2022-07-29T02:39:36;1.60;;;1.50;;
1785;SDS011;890;48.158;11.540;2022-07-29T02:42:05;2.60;;;1.60;;
1785;SDS011;890;48.158;11.540;2022-07-29T02:44:34;1.43;;;1.33;;
1785;SDS011;890;48.158;11.540;2022-07-29T02:47:12;1.63;;;1.50;;
1785;SDS011;890;48.158;11.540;2022-07-29T02:55:33;1.43;;;1.33;;
1785;SDS011;890;48.158;11.540;2022-07-29T02:58:25;1.77;;;1.67;;
1785;SDS011;890;48.158;11.540;2022-07-29T03:00:48;1.70;;;1.60;;
1785;SDS011;890;48.158;11.540;2022-07-29T03:03:17;1.80;;;1.60;;
1785;SDS011;890;48.158;11.540;2022-07-29T03:05:44;2.20;;;2.00;;
1785;SDS011;890;48.158;11.540;2022-07-29T03:08:10;1.53;;;1.43;;
1785;SDS011;890;48.158;11.540;2022-07-29T03:10:37;2.23;;;1.50;;
1785;SDS011;890;48.158;11.540;2022-07-29T03:13:05;2.47;;;1.70;;
1785;SDS011;890;48.158;11.540;2022-07-29T03:15:32;1.97;;;1.60;;
1785;SDS011;890;48.158;11.540;2022-07-29T03:17:59;1.70;;;1.60;;
1785;SDS011;890;48.158;11.540;2022-07-29T03:20:25;1.60;;;1.50;;
1785;SDS011;890;48.158;11.540;2022-07-29T03:22:51;2.03;;;1.60;;
1785;SDS011;890;48.158;11.540;2022-07-29T03:25:18;3.17;;;1.80;;
1785;SDS011;890;48.158;11.540;2022-07-29T03:27:45;1.70;;;1.60;;
1785;SDS011;890;48.158;11.540;2022-07-29T03:30:12;1.80;;;1.70;;
1785;SDS011;890;48.158;11.540;2022-07-29T03:32:40;2.00;;;1.73;;
1785;SDS011;890;48.158;11.540;2022-07-29T03:35:06;2.17;;;1.80;;
1785;SDS011;890;48.158;11.540;2022-07-29T03:37:32;1.70;;;1.60;;
1785;SDS011;890;48.158;11.540;2022-07-29T03:39:59;1.80;;;1.70;;
1785;SDS011;890;48.158;11.540;2022-07-29T03:42:29;1.67;;;1.57;;
1785;SDS011;890;48.158;11.540;2022-07-29T03:44:57;1.93;;;1.70;;
1785;SDS011;890;48.158;11.540;2022-07-29T03:47:27;1.93;;;1.70;;
1785;SDS011;890;48.158;11.540;2022-07-29T03:49:54;2.03;;;1.83;;
1785;SDS011;890;48.158;11.540;2022-07-29T03:52:25;1.50;;;1.40;;
1785;SDS011;890;48.158;11.540;2022-07-29T03:54:51;4.43;;;1.80;;
1785;SDS011;890;48.158;11.540;2022-07-29T03:57:18;2.00;;;1.80;;
1785;SDS011;890;48.158;11.540;2022-07-29T03:59:48;2.20;;;2.00;;
1785;SDS011;890;48.158;11.540;2022-07-29T04:02:15;2.83;;;1.80;;
1785;SDS011;890;48.158;11.540;2022-07-29T04:04:41;2.07;;;1.93;;
1785;SDS011;890;48.158;11.540;2022-07-29T04:07:07;2.13;;;1.67;;
1785;SDS011;890;48.158;11.540;2022-07-29T04:09:37;3.03;;;2.17;;
1785;SDS011;890;48.158;11.540;2022-07-29T04:12:03;3.00;;;2.57;;
1785;SDS011;890;48.158;11.540;2022-07-29T04:14:32;3.00;;;2.43;;
1785;SDS011;890;48.158;11.540;2022-07-29T04:16:59;2.10;;;1.90;;
1785;SDS011;890;48.158;11.540;2022-07-29T04:19:25;2.47;;;2.27;;
1785;SDS011;890;48.158;11.540;2022-07-29T04:21:51;2.97;;;2.50;;
1785;SDS011;890;48.158;11.540;2022-07-29T04:24:17;2.60;;;2.40;;
1785;SDS011;890;48.158;11.540;2022-07-29T04:26:42;2.43;;;2.20;;
1785;SDS011;890;48.158;11.540;2022-07-29T04:29:10;3.43;;;2.10;;
1785;SDS011;890;48.158;11.540;2022-07-29T04:31:36;2.40;;;2.13;;
1785;SDS011;890;48.158;11.540;2022-07-29T04:34:02;2.90;;;2.70;;
1785;SDS011;890;48.158;11.540;2022-07-29T04:36:28;2.53;;;2.33;;
1785;SDS011;890;48.158;11.540;2022-07-29T04:38:53;2.77;;;2.57;;
1785;SDS011;890;48.158;11.540;2022-07-29T04:41:19;3.23;;;2.67;;
1785;SDS011;890;48.158;11.540;2022-07-29T04:43:45;3.00;;;2.80;;
1785;SDS011;890;48.158;11.540;2022-07-29T04:46:11;3.43;;;2.93;;
1785;SDS011;890;48.158;11.540;2022-07-29T04:48:36;4.30;;;3.90;;
1785;SDS011;890;48.158;11.540;2022-07-29T04:51:02;5.03;;;3.80;;
1785;SDS011;890;48.158;11.540;2022-07-29T04:53:27;3.80;;;3.50;;
1785;SDS011;890;48.158;11.540;2022-07-29T04:55:53;4.33;;;3.80;;
1785;SDS011;890;48.158;11.540;2022-07-29T04:58:18;4.60;;;4.20;;
1785;SDS011;890;48.158;11.540;2022-07-29T05:00:44;4.73;;;4.33;;
1785;SDS011;890;48.158;11.540;2022-07-29T05:03:10;4.50;;;4.10;;
1785;SDS011;890;48.158;11.540;2022-07-29T05:05:35;5.03;;;4.53;;
1785;SDS011;890;48.158;11.540;2022-07-29T05:08:01;3.90;;;3.60;;
1785;SDS011;890;48.158;11.540;2022-07-29T05:10:26;4.53;;;4.13;;
1785;SDS011;890;48.158;11.540;2022-07-29T05:12:53;3.80;;;3.50;;
1785;SDS011;890;48.158;11.540;2022-07-29T05:15:19;3.67;;;3.37;;
1785;SDS011;890;48.158;11.540;2022-07-29T05:17:44;4.73;;;3.60;;
1785;SDS011;890;48.158;11.540;2022-07-29T05:20:10;4.20;;;3.80;;
1785;SDS011;890;48.158;11.540;2022-07-29T05:22:36;3.67;;;3.37;;
1785;SDS011;890;48.158;11.540;2022-07-29T05:25:01;5.50;;;3.97;;
1785;SDS011;890;48.158;11.540;2022-07-29T05:27:27;3.70;;;3.30;;
1785;SDS011;890;48.158;11.540;2022-07-29T05:29:53;4.47;;;3.00;;
1785;SDS011;890;48.158;11.540;2022-07-29T05:32:18;3.40;;;3.10;;
1785;SDS011;890;48.158;11.540;2022-07-29T05:34:44;3.27;;;3.00;;
1785;SDS011;890;48.158;11.540;2022-07-29T05:37:10;2.70;;;2.50;;
1785;SDS011;890;48.158;11.540;2022-07-29T05:39:35;2.60;;;2.40;;
1785;SDS011;890;48.158;11.540;2022-07-29T05:42:01;2.50;;;2.30;;
1785;SDS011;890;48.158;11.540;2022-07-29T05:44:27;2.50;;;2.27;;
1785;SDS011;890;48.158;11.540;2022-07-29T05:46:52;2.50;;;2.30;;
1785;SDS011;890;48.158;11.540;2022-07-29T05:49:18;2.43;;;2.23;;
1785;SDS011;890;48.158;11.540;2022-07-29T05:51:43;2.60;;;2.40;;
1785;SDS011;890;48.158;11.540;2022-07-29T05:54:09;2.40;;;2.20;;
1785;SDS011;890;48.158;11.540;2022-07-29T05:56:35;2.87;;;2.37;;
1785;SDS011;890;48.158;11.540;2022-07-29T05:59:02;3.17;;;2.50;;
1785;SDS011;890;48.158;11.540;2022-07-29T06:01:28;2.90;;;2.70;;
1785;SDS011;890;48.158;11.540;2022-07-29T06:03:53;5.10;;;4.50;;
1785;SDS011;890;48.158;11.540;2022-07-29T06:06:19;2.70;;;2.50;;
1785;SDS011;890;48.158;11.540;2022-07-29T06:08:45;2.40;;;2.20;;
1785;SDS011;890;48.158;11.540;2022-07-29T06:11:10;2.63;;;2.30;;
1785;SDS011;890;48.158;11.540;2022-07-29T06:13:36;2.53;;;2.30;;
1785;SDS011;890;48.158;11.540;2022-07-29T06:16:01;2.50;;;2.30;;
1785;SDS011;890;48.158;11.540;2022-07-29T06:18:27;3.37;;;2.40;;
1785;SDS011;890;48.158;11.540;2022-07-29T06:20:53;2.40;;;2.20;;
1785;SDS011;890;48.158;11.540;2022-07-29T06:23:19;2.37;;;2.10;;
1785;SDS011;890;48.158;11.540;2022-07-29T06:25:45;4.60;;;2.20;;
1785;SDS011;890;48.158;11.540;2022-07-29T06:28:11;2.67;;;2.47;;
1785;SDS011;890;48.158;11.540;2022-07-29T06:30:36;3.40;;;2.50;;
1785;SDS011;890;48.158;11.540;2022-07-29T06:33:02;2.80;;;2.60;;
1785;SDS011;890;48.158;11.540;2022-07-29T06:35:28;10.60;;;3.03;;
1785;SDS011;890;48.158;11.540;2022-07-29T06:37:54;2.90;;;2.70;;
1785;SDS011;890;48.158;11.540;2022-07-29T06:40:19;2.93;;;2.20;;
1785;SDS011;890;48.158;11.540;2022-07-29T06:43:04;2.80;;;2.07;;
1785;SDS011;890;48.158;11.540;2022-07-29T06:45:30;2.50;;;2.30;;
1785;SDS011;890;48.158;11.540;2022-07-29T06:47:58;2.07;;;1.90;;
1785;SDS011;890;48.158;11.540;2022-07-29T06:50:24;2.80;;;2.53;;
1785;SDS011;890;48.158;11.540;2022-07-29T06:52:50;3.27;;;2.30;;
1785;SDS011;890;48.158;11.540;2022-07-29T06:55:15;3.00;;;2.30;;
1785;SDS011;890;48.158;11.540;2022-07-29T06:57:41;2.20;;;2.00;;
1785;SDS011;890;48.158;11.540;2022-07-29T07:00:07;3.33;;;2.10;;
1785;SDS011;890;48.158;11.540;2022-07-29T07:02:33;2.47;;;2.27;;
1785;SDS011;890;48.158;11.540;2022-07-29T07:04:58;2.20;;;2.00;;
1785;SDS011;890;48.158;11.540;2022-07-29T07:07:24;2.20;;;2.00;;
1785;SDS011;890;48.158;11.540;2022-07-29T07:09:50;3.17;;;2.43;;
1785;SDS011;890;48.158;11.540;2022-07-29T07:12:15;3.40;;;2.20;;
1785;SDS011;890;48.158;11.540;2022-07-29T07:14:41;2.30;;;2.10;;
1785;SDS011;890;48.158;11.540;2022-07-29T07:17:07;2.57;;;1.90;;
1785;SDS011;890;48.158;11.540;2022-07-29T07:19:32;2.30;;;1.97;;
1785;SDS011;890;48.158;11.540;2022-07-29T07:21:58;3.10;;;2.57;;
1785;SDS011;890;48.158;11.540;2022-07-29T07:24:24;2.00;;;1.90;;
1785;SDS011;890;48.158;11.540;2022-07-29T07:26:50;2.03;;;1.93;;
1785;SDS011;890;48.158;11.540;2022-07-29T07:29:16;2.10;;;2.00;;
1785;SDS011;890;48.158;11.540;2022-07-29T07:31:41;3.83;;;1.80;;
1785;SDS011;890;48.158;11.540;2022-07-29T07:34:07;3.43;;;1.90;;
1785;SDS011;890;48.158;11.540;2022-07-29T07:36:33;1.80;;;1.70;;
1785;SDS011;890;48.158;11.540;2022-07-29T07:38:58;3.27;;;2.37;;
1785;SDS011;890;48.158;11.540;2022-07-29T07:41:24;3.00;;;2.10;;
1785;SDS011;890;48.158;11.540;2022-07-29T07:43:49;3.80;;;1.70;;
1785;SDS011;890;48.158;11.540;2022-07-29T07:46:19;2.23;;;1.80;;
1785;SDS011;890;48.158;11.540;2022-07-29T07:48:44;4.23;;;1.90;;
1785;SDS011;890;48.158;11.540;2022-07-29T07:51:10;1.90;;;1.80;;
1785;SDS011;890;48.158;11.540;2022-07-29T07:53:36;2.50;;;2.30;;
1785;SDS011;890;48.158;11.540;2022-07-29T07:56:02;2.23;;;1.93;;
1785;SDS011;890;48.158;11.540;2022-07-29T07:58:29;2.03;;;1.83;;
1785;SDS011;890;48.158;11.540;2022-07-29T08:00:55;2.30;;;2.10;;
1785;SDS011;890;48.158;11.540;2022-07-29T08:03:20;1.87;;;1.77;;
1785;SDS011;890;48.158;11.540;2022-07-29T08:05:46;3.40;;;2.10;;
1785;SDS011;890;48.158;11.540;2022-07-29T08:08:13;2.10;;;2.00;;
1785;SDS011;890;48.158;11.540;2022-07-29T08:10:38;2.07;;;1.93;;
1785;SDS011;890;48.158;11.540;2022-07-29T08:13:24;2.33;;;2.13;;
1785;SDS011;890;48.158;11.540;2022-07-29T08:15:52;2.43;;;1.97;;
1785;SDS011;890;48.158;11.540;2022-07-29T08:18:26;2.17;;;1.90;;
1785;SDS011;890;48.158;11.540;2022-07-29T08:20:53;2.23;;;2.03;;
1785;SDS011;890;48.158;11.540;2022-07-29T08:23:18;2.23;;;2.03;;
1785;SDS011;890;48.158;11.540;2022-07-29T08:25:44;3.47;;;1.73;;
1785;SDS011;890;48.158;11.540;2022-07-29T08:28:10;1.93;;;1.83;;
1785;SDS011;890;48.158;11.540;2022-07-29T08:30:35;2.03;;;1.93;;
1785;SDS011;890;48.158;11.540;2022-07-29T08:33:01;3.00;;;1.90;;
1785;SDS011;890;48.158;11.540;2022-07-29T08:35:27;2.93;;;2.47;;
1785;SDS011;890;48.158;11.540;2022-07-29T08:37:53;2.70;;;2.50;;
1785;SDS011;890;48.158;11.540;2022-07-29T08:40:19;2.53;;;2.30;;
1785;SDS011;890;48.158;11.540;2022-07-29T08:42:45;3.00;;;2.60;;
1785;SDS011;890;48.158;11.540;2022-07-29T08:45:11;2.20;;;2.00;;
1785;SDS011;890;48.158;11.540;2022-07-29T08:47:40;2.53;;;2.33;;
1785;SDS011;890;48.158;11.540;2022-07-29T08:50:09;3.73;;;2.70;;
1785;SDS011;890;48.158;11.540;2022-07-29T08:52:36;2.73;;;2.53;;
1785;SDS011;890;48.158;11.540;2022-07-29T08:55:05;2.97;;;2.70;;
1785;SDS011;890;48.158;11.540;2022-07-29T08:57:32;2.60;;;2.40;;
1785;SDS011;890;48.158;11.540;2022-07-29T09:00:00;2.57;;;2.37;;
1785;SDS011;890;48.158;11.540;2022-07-29T09:02:28;2.83;;;2.63;;
1785;SDS011;890;48.158;11.540;2022-07-29T09:04:57;2.70;;;2.50;;
1785;SDS011;890;48.158;11.540;2022-07-29T09:07:26;2.93;;;2.67;;
1785;SDS011;890;48.158;11.540;2022-07-29T09:09:51;3.00;;;2.80;;
1785;SDS011;890;48.158;11.540;2022-07-29T09:12:17;3.00;;;2.80;;
1785;SDS011;890;48.158;11.540;2022-07-29T09:14:43;2.50;;;2.30;;
1785;SDS011;890;48.158;11.540;2022-07-29T09:17:09;2.43;;;2.23;;
1785;SDS011;890;48.158;11.540;2022-07-29T09:19:35;3.00;;;2.80;;
1785;SDS011;890;48.158;11.540;2022-07-29T09:22:03;2.30;;;2.20;;
1785;SDS011;890;48.158;11.540;2022-07-29T09:27:09;3.70;;;3.30;;
1785;SDS011;890;48.158;11.540;2022-07-29T09:29:42;2.70;;;2.50;;
1785;SDS011;890;48.158;11.540;2022-07-29T09:32:09;3.10;;;2.50;;
1785;SDS011;890;48.158;11.540;2022-07-29T09:34:35;3.40;;;3.10;;
1785;SDS011;890;48.158;11.540;2022-07-29T09:37:02;3.37;;;2.97;;
1785;SDS011;890;48.158;11.540;2022-07-29T09:39:29;3.30;;;3.10;;
1785;SDS011;890;48.158;11.540;2022-07-29T09:42:01;3.50;;;3.17;;
1785;SDS011;890;48.158;11.540;2022-07-29T09:44:47;4.30;;;3.50;;
1785;SDS011;890;48.158;11.540;2022-07-29T09:47:16;4.33;;;3.60;;
1785;SDS011;890;48.158;11.540;2022-07-29T09:49:58;4.13;;;3.47;;
1785;SDS011;890;48.158;11.540;2022-07-29T09:52:25;4.40;;;4.00;;
1785;SDS011;890;48.158;11.540;2022-07-29T09:54:51;4.60;;;3.50;;
1785;SDS011;890;48.158;11.540;2022-07-29T09:57:23;3.07;;;2.87;;
1785;SDS011;890;48.158;11.540;2022-07-29T09:59:57;5.23;;;4.23;;
1785;SDS011;890;48.158;11.540;2022-07-29T10:02:27;7.90;;;4.90;;
1785;SDS011;890;48.158;11.540;2022-07-29T10:04:56;3.50;;;3.20;;
1785;SDS011;890;48.158;11.540;2022-07-29T10:07:22;4.97;;;3.30;;
1785;SDS011;890;48.158;11.540;2022-07-29T10:09:52;4.17;;;3.57;;
1785;SDS011;890;48.158;11.540;2022-07-29T10:12:22;3.60;;;3.30;;
1785;SDS011;890;48.158;11.540;2022-07-29T10:14:49;4.00;;;3.60;;
1785;SDS011;890;48.158;11.540;2022-07-29T10:17:15;4.83;;;3.63;;
1785;SDS011;890;48.158;11.540;2022-07-29T10:19:42;4.00;;;3.60;;
1785;SDS011;890;48.158;11.540;2022-07-29T10:22:08;4.50;;;4.10;;
1785;SDS011;890;48.158;11.540;2022-07-29T10:24:35;4.53;;;4.13;;
1785;SDS011;890;48.158;11.540;2022-07-29T10:27:03;4.37;;;3.97;;
1785;SDS011;890;48.158;11.540;2022-07-29T10:29:29;5.40;;;3.60;;
1785;SDS011;890;48.158;11.540;2022-07-29T10:44:15;5.07;;;4.57;;
1785;SDS011;890;48.158;11.540;2022-07-29T10:46:43;4.03;;;3.73;;
1785;SDS011;890;48.158;11.540;2022-07-29T10:51:56;4.03;;;3.03;;
1785;SDS011;890;48.158;11.540;2022-07-29T10:59:37;3.20;;;3.00;;
1785;SDS011;890;48.158;11.540;2022-07-29T11:02:09;3.43;;;3.03;;
1785;SDS011;890;48.158;11.540;2022-07-29T11:07:24;3.83;;;3.53;;
1785;SDS011;890;48.158;11.540;2022-07-29T11:15:04;5.53;;;2.93;;
1785;SDS011;890;48.158;11.540;2022-07-29T11:28:59;3.60;;;3.30;;
1785;SDS011;890;48.158;11.540;2022-07-29T11:31:37;5.03;;;3.03;;
1785;SDS011;890;48.158;11.540;2022-07-29T11:34:26;3.07;;;2.87;;
1785;SDS011;890;48.158;11.540;2022-07-29T11:39:32;4.27;;;3.97;;
1785;SDS011;890;48.158;11.540;2022-07-29T11:44:58;4.43;;;3.20;;
1785;SDS011;890;48.158;11.540;2022-07-29T11:47:30;3.20;;;3.00;;
1785;SDS011;890;48.158;11.540;2022-07-29T11:49:57;5.07;;;3.00;;
1785;SDS011;890;48.158;11.540;2022-07-29T11:55:02;2.87;;;2.67;;
1785;SDS011;890;48.158;11.540;2022-07-29T11:57:30;4.10;;;3.00;;
1785;SDS011;890;48.158;11.540;2022-07-29T11:59:56;4.27;;;3.10;;
1785;SDS011;890;48.158;11.540;2022-07-29T12:02:23;3.73;;;3.27;;
1785;SDS011;890;48.158;11.540;2022-07-29T12:04:49;6.43;;;3.90;;
1785;SDS011;890;48.158;11.540;2022-07-29T12:07:15;3.27;;;3.07;;
1785;SDS011;890;48.158;11.540;2022-07-29T12:09:48;3.33;;;3.13;;
1785;SDS011;890;48.158;11.540;2022-07-29T12:12:15;3.20;;;2.90;;
1785;SDS011;890;48.158;11.540;2022-07-29T12:14:41;3.27;;;3.07;;
1785;SDS011;890;48.158;11.540;2022-07-29T12:17:24;3.70;;;3.00;;
1785;SDS011;890;48.158;11.540;2022-07-29T12:19:49;3.80;;;3.33;;
1785;SDS011;890;48.158;11.540;2022-07-29T12:22:23;3.23;;;3.00;;
1785;SDS011;890;48.158;11.540;2022-07-29T12:24:54;4.60;;;3.57;;
1785;SDS011;890;48.158;11.540;2022-07-29T12:27:20;4.90;;;2.93;;
1785;SDS011;890;48.158;11.540;2022-07-29T12:30:07;3.07;;;2.73;;
1785;SDS011;890;48.158;11.540;2022-07-29T12:32:36;4.20;;;3.67;;
1785;SDS011;890;48.158;11.540;2022-07-29T12:35:09;6.90;;;4.17;;
1785;SDS011;890;48.158;11.540;2022-07-29T12:37:37;4.03;;;3.33;;
1785;SDS011;890;48.158;11.540;2022-07-29T12:40:05;4.30;;;3.57;;
1785;SDS011;890;48.158;11.540;2022-07-29T12:42:32;3.70;;;3.50;;
1785;SDS011;890;48.158;11.540;2022-07-29T12:44:58;3.40;;;3.10;;
1785;SDS011;890;48.158;11.540;2022-07-29T12:47:24;3.60;;;3.30;;
1785;SDS011;890;48.158;11.540;2022-07-29T12:49:50;3.70;;;3.17;;
1785;SDS011;890;48.158;11.540;2022-07-29T12:52:32;4.00;;;3.20;;
1785;SDS011;890;48.158;11.540;2022-07-29T12:54:59;4.17;;;3.77;;
1785;SDS011;890;48.158;11.540;2022-07-29T12:57:25;3.37;;;2.97;;
1785;SDS011;890;48.158;11.540;2022-07-29T12:59:58;3.83;;;3.53;;
1785;SDS011;890;48.158;11.540;2022-07-29T13:02:33;4.17;;;3.87;;
1785;SDS011;890;48.158;11.540;2022-07-29T13:04:59;4.00;;;3.20;;
1785;SDS011;890;48.158;11.540;2022-07-29T13:07:26;3.60;;;3.30;;
1785;SDS011;890;48.158;11.540;2022-07-29T13:09:54;3.60;;;3.17;;
1785;SDS011;890;48.158;11.540;2022-07-29T13:12:35;5.20;;;3.20;;
1785;SDS011;890;48.158;11.540;2022-07-29T13:15:11;3.50;;;3.20;;
1785;SDS011;890;48.158;11.540;2022-07-29T13:17:43;4.03;;;3.63;;
1785;SDS011;890;48.158;11.540;2022-07-29T13:20:09;3.07;;;2.87;;
1785;SDS011;890;48.158;11.540;2022-07-29T13:22:40;4.07;;;3.77;;
1785;SDS011;890;48.158;11.540;2022-07-29T13:25:07;3.63;;;3.40;;
1785;SDS011;890;48.158;11.540;2022-07-29T13:27:34;3.43;;;3.17;;
1785;SDS011;890;48.158;11.540;2022-07-29T13:30:03;4.20;;;3.57;;
1785;SDS011;890;48.158;11.540;2022-07-29T13:32:32;3.87;;;3.57;;
1785;SDS011;890;48.158;11.540;2022-07-29T13:35:03;3.70;;;3.40;;
1785;SDS011;890;48.158;11.540;2022-07-29T13:37:30;4.60;;;3.87;;
1785;SDS011;890;48.158;11.540;2022-07-29T13:39:59;3.53;;;3.10;;
1785;SDS011;890;48.158;11.540;2022-07-29T13:42:25;3.40;;;3.10;;
1785;SDS011;890;48.158;11.540;2022-07-29T13:44:51;3.70;;;3.40;;
1785;SDS011;890;48.158;11.540;2022-07-29T13:47:17;3.70;;;3.40;;
1785;SDS011;890;48.158;11.540;2022-07-29T13:49:44;3.87;;;3.33;;
1785;SDS011;890;48.158;11.540;2022-07-29T13:52:10;3.60;;;3.03;;
1785;SDS011;890;48.158;11.540;2022-07-29T13:54:35;3.80;;;3.00;;
1785;SDS011;890;48.158;11.540;2022-07-29T13:57:02;3.67;;;3.07;;
1785;SDS011;890;48.158;11.540;2022-07-29T13:59:28;3.57;;;2.90;;
1785;SDS011;890;48.158;11.540;2022-07-29T14:01:54;4.67;;;2.93;;
1785;SDS011;890;48.158;11.540;2022-07-29T14:04:20;3.80;;;3.03;;
1785;SDS011;890;48.158;11.540;2022-07-29T14:06:46;2.90;;;2.70;;
1785;SDS011;890;48.158;11.540;2022-07-29T14:09:12;3.00;;;2.80;;
1785;SDS011;890;48.158;11.540;2022-07-29T14:11:37;2.70;;;2.50;;
1785;SDS011;890;48.158;11.540;2022-07-29T14:14:03;4.30;;;3.07;;
1785;SDS011;890;48.158;11.540;2022-07-29T14:16:29;2.90;;;2.70;;
1785;SDS011;890;48.158;11.540;2022-07-29T14:18:55;3.50;;;2.60;;
1785;SDS011;890;48.158;11.540;2022-07-29T14:21:20;2.60;;;2.40;;
1785;SDS011;890;48.158;11.540;2022-07-29T14:23:46;2.93;;;2.73;;
1785;SDS011;890;48.158;11.540;2022-07-29T14:26:12;2.70;;;2.50;;
1785;SDS011;890;48.158;11.540;2022-07-29T14:28:38;3.10;;;2.83;;
1785;SDS011;890;48.158;11.540;2022-07-29T14:31:03;3.57;;;2.80;;
1785;SDS011;890;48.158;11.540;2022-07-29T14:33:29;3.00;;;2.80;;
1785;SDS011;890;48.158;11.540;2022-07-29T14:35:54;3.37;;;3.07;;
1785;SDS011;890;48.158;11.540;2022-07-29T14:38:20;3.10;;;2.70;;
1785;SDS011;890;48.158;11.540;2022-07-29T14:40:45;4.27;;;3.00;;
1785;SDS011;890;48.158;11.540;2022-07-29T14:43:12;3.03;;;2.83;;
1785;SDS011;890;48.158;11.540;2022-07-29T14:45:38;3.10;;;2.90;;
1785;SDS011;890;48.158;11.540;2022-07-29T14:48:04;3.17;;;2.97;;
1785;SDS011;890;48.158;11.540;2022-07-29T14:50:30;5.63;;;3.43;;
1785;SDS011;890;48.158;11.540;2022-07-29T14:52:56;3.80;;;3.50;;
1785;SDS011;890;48.158;11.540;2022-07-29T14:55:21;3.50;;;3.20;;
1785;SDS011;890;48.158;11.540;2022-07-29T14:57:47;3.03;;;2.83;;
1785;SDS011;890;48.158;11.540;2022-07-29T15:00:13;3.00;;;2.77;;
1785;SDS011;890;48.158;11.540;2022-07-29T15:02:39;5.00;;;3.03;;
1785;SDS011;890;48.158;11.540;2022-07-29T15:05:05;3.50;;;3.20;;
1785;SDS011;890;48.158;11.540;2022-07-29T15:07:31;4.83;;;3.47;;
1785;SDS011;890;48.158;11.540;2022-07-29T15:09:56;3.10;;;2.90;;
1785;SDS011;890;48.158;11.540;2022-07-29T15:12:22;4.47;;;3.80;;
1785;SDS011;890;48.158;11.540;2022-07-29T15:14:48;4.00;;;3.70;;
1785;SDS011;890;48.158;11.540;2022-07-29T15:17:13;3.80;;;3.50;;
1785;SDS011;890;48.158;11.540;2022-07-29T15:19:39;4.10;;;3.33;;
1785;SDS011;890;48.158;11.540;2022-07-29T15:22:05;3.87;;;3.50;;
1785;SDS011;890;48.158;11.540;2022-07-29T15:24:31;5.33;;;3.73;;
1785;SDS011;890;48.158;11.540;2022-07-29T15:26:56;3.87;;;3.60;;
1785;SDS011;890;48.158;11.540;2022-07-29T15:29:22;4.30;;;3.40;;
1785;SDS011;890;48.158;11.540;2022-07-29T15:31:48;3.73;;;3.37;;
1785;SDS011;890;48.158;11.540;2022-07-29T15:34:14;4.03;;;3.40;;
1785;SDS011;890;48.158;11.540;2022-07-29T15:36:39;4.00;;;3.53;;
1785;SDS011;890;48.158;11.540;2022-07-29T15:39:05;3.90;;;3.50;;
1785;SDS011;890;48.158;11.540;2022-07-29T15:41:32;4.10;;;3.70;;
1785;SDS011;890;48.158;11.540;2022-07-29T15:43:58;3.60;;;3.30;;
1785;SDS011;890;48.158;11.540;2022-07-29T15:46:24;4.93;;;4.03;;
1785;SDS011;890;48.158;11.540;2022-07-29T15:49:08;4.10;;;3.80;;
1785;SDS011;890;48.158;11.540;2022-07-29T15:51:34;4.13;;;3.77;;
1785;SDS011;890;48.158;11.540;2022-07-29T15:54:00;4.00;;;3.63;;
1785;SDS011;890;48.158;11.540;2022-07-29T15:56:27;4.47;;;4.10;;
1785;SDS011;890;48.158;11.540;2022-07-29T15:58:53;4.20;;;3.50;;
1785;SDS011;890;48.158;11.540;2022-07-29T16:01:18;4.60;;;3.60;;
1785;SDS011;890;48.158;11.540;2022-07-29T16:03:44;6.33;;;4.07;;
1785;SDS011;890;48.158;11.540;2022-07-29T16:06:10;4.03;;;3.70;;
1785;SDS011;890;48.158;11.540;2022-07-29T16:08:35;4.30;;;3.90;;
1785;SDS011;890;48.158;11.540;2022-07-29T16:11:01;4.00;;;3.70;;
1785;SDS011;890;48.158;11.540;2022-07-29T16:13:27;5.13;;;4.20;;
1785;SDS011;890;48.158;11.540;2022-07-29T16:15:52;4.03;;;3.73;;
1785;SDS011;890;48.158;11.540;2022-07-29T16:18:18;7.60;;;4.40;;
1785;SDS011;890;48.158;11.540;2022-07-29T16:20:43;4.60;;;4.20;;
1785;SDS011;890;48.158;11.540;2022-07-29T16:23:09;6.37;;;4.20;;
1785;SDS011;890;48.158;11.540;2022-07-29T16:25:39;4.40;;;4.00;;
1785;SDS011;890;48.158;11.540;2022-07-29T16:28:04;4.20;;;3.90;;
1785;SDS011;890;48.158;11.540;2022-07-29T16:30:32;4.87;;;4.50;;
1785;SDS011;890;48.158;11.540;2022-07-29T16:32:58;5.23;;;4.13;;
1785;SDS011;890;48.158;11.540;2022-07-29T16:35:23;4.47;;;4.07;;